Tampa, FL

02:07 PM EST on Ιανουάριος 17, 2017 (GMT -0500)
MacDill Air Force Base | | Change Station

Elev 13 ft 27.85 °N, 82.52 °W | Updated 9 minutes ago

Λίγο Νεφελώδης
Λίγο Νεφελώδης
81 ° F
Feels Like 82 ° F
N
4
Ανεμος Μεταβλητός Ανεμος from Μεταβλητός

Σήμερα
High -- | Low -- ° F
--% Chance of Precip.
Yesterday
High -- | Low -- ° F
Precip. -- in
Ατμοσφαιρική Πίεση 30.20 in
Ορατότητα 10.0 Μίλια
Σύννεφα Few 17000 ft
Δείκτης Δυσφορίας 82 ° F
Σημείο Δρόσου 64 ° F
Υγρασία 56%
Rainfall 0.00 in
Snow Depth Not available.
7:22 AM 5:58 PM
Αμφίκυρτος, 70% visible
METAR KMCF 171858Z AUTO VRB03KT 10SM FEW170 27/18 A3019 RMK AO2 SLP226 T02720176
Ατμοσφαιρική Πίεση 30.20 in
Ορατότητα 10.0 Μίλια
Σύννεφα Few 17000 ft
Δείκτης Δυσφορίας 82 ° F
Σημείο Δρόσου 64 ° F
Υγρασία 56%
Rainfall 0.00 in
Snow Depth Not available.
7:22 AM 5:58 PM
Αμφίκυρτος, 70% visible
METAR KMCF 171858Z AUTO VRB03KT 10SM FEW170 27/18 A3019 RMK AO2 SLP226 T02720176

Get Your Daily Forecast Email!

Thanks for signing up!

Be on the lookout for a verification email in your inbox.

You'll start receiving the daily forecast at 8 AM.

×

10-Day Weather Forecast

Almanac

Αστρονομία

Jan. 17, 2017 Rise Set
Actual Time
Civil Twilight
Nautical Twilight
Astronomical Twilight
Moon
Length Of Visible Light
Διάρκεια ημέρας
Tomorrow will be .
, % of the Moon is Illuminated

Today's Extremes

State Highs State Lows

Community

WunderPhotos

Upload Photos

1,962,540 photos uploaded!

WunderBlog® & News

Nearby

Air Quality

  Air Quality AQ Index Pollutant
Not available.

Snow Depth

Station Depth Elevation

Earthquake Activity

City Distance Mag. Time & Date
Minimum magnitude displayed is 2.5.

Coastal Water Temperatures

Τοποθεσία Θερμοκρασία

Stations

Nearby Weather Stations

Station Location Temp Δείκτης Ψυχρότητας Σημείο Δρόσου Υγρασία Ανεμος Precip. Elev Ενημερώθηκε Type
                   

Watches & Warnings

There are currently no watches in effect.